Time,TemperatureF,DewpointF,PressureIn,WindDirection,WindDirectionDegrees,WindSpeedMPH,WindSpeedGustMPH,Humidity,HourlyPrecipIn,Conditions,Clouds,dailyrainin,SoftwareType,DateUTC
2013-01-05 00:00:00,35.1,26.0,29.85,SW,214,10.0,19.0,69,0.00,,---,0.00,VWS V14.01,2013-01-05 05:00:00,
2013-01-05 00:01:00,35.1,26.0,29.85,SW,214,16.0,16.0,69,0.00,,---,0.00,VWS V14.01,2013-01-05 05:01:00,
2013-01-05 00:06:00,35.2,25.7,29.85,SSW,208,11.0,16.0,68,0.00,,---,0.00,VWS V14.01,2013-01-05 05:06:00,
2013-01-05 00:11:00,35.2,26.4,29.85,SW,219,14.0,19.0,70,0.00,,---,0.00,VWS V14.01,2013-01-05 05:11:00,
2013-01-05 00:16:00,35.2,25.4,29.85,SW,217,13.0,19.0,67,0.00,,---,0.00,VWS V14.01,2013-01-05 05:16:00,
2013-01-05 00:21:00,35.1,25.3,29.85,SSW,211,12.0,19.0,67,0.00,,---,0.00,VWS V14.01,2013-01-05 05:21:00,
2013-01-05 00:26:00,35.0,25.2,29.85,SSW,213,11.0,19.0,67,0.00,,---,0.00,VWS V14.01,2013-01-05 05:26:00,
2013-01-05 00:31:00,34.9,25.4,29.85,SW,220,13.0,17.0,68,0.00,,---,0.00,VWS V14.01,2013-01-05 05:31:00,
2013-01-05 00:36:00,34.8,25.3,29.85,SW,217,13.0,17.0,68,0.00,,---,0.00,VWS V14.01,2013-01-05 05:36:00,
2013-01-05 00:41:00,34.7,25.2,29.85,SW,219,14.0,17.0,68,0.00,,---,0.00,VWS V14.01,2013-01-05 05:41:00,
2013-01-05 00:46:00,34.7,25.2,29.86,SW,217,11.0,17.0,68,0.00,,---,0.00,VWS V14.01,2013-01-05 05:46:00,
2013-01-05 00:51:00,34.8,25.7,29.86,SW,223,11.0,17.0,69,0.00,,---,0.00,VWS V14.01,2013-01-05 05:51:00,
2013-01-05 00:57:00,34.7,25.9,29.86,SW,216,12.0,17.0,70,0.00,,---,0.00,VWS V14.01,2013-01-05 05:57:00,
2013-01-05 01:02:00,34.7,25.2,29.86,SW,223,12.0,15.0,68,0.00,,---,0.00,VWS V14.01,2013-01-05 06:02:00,
2013-01-05 01:07:00,34.7,25.6,29.86,SW,215,15.0,16.0,69,0.00,,---,0.00,VWS V14.01,2013-01-05 06:07:00,
2013-01-05 01:12:00,34.7,25.9,29.86,SW,224,13.0,16.0,70,0.00,,---,0.00,VWS V14.01,2013-01-05 06:12:00,
2013-01-05 01:17:00,34.8,25.7,29.86,SW,221,15.0,18.0,69,0.00,,---,0.00,VWS V14.01,2013-01-05 06:17:00,
2013-01-05 01:22:00,34.8,25.3,29.86,SW,223,14.0,18.0,68,0.00,,---,0.00,VWS V14.01,2013-01-05 06:22:00,
2013-01-05 01:27:00,34.9,26.1,29.86,SW,220,17.0,19.0,70,0.00,,---,0.00,VWS V14.01,2013-01-05 06:27:00,
2013-01-05 01:32:00,34.9,25.4,29.86,SW,223,15.0,18.0,68,0.00,,---,0.00,VWS V14.01,2013-01-05 06:32:00,
2013-01-05 01:37:00,34.9,25.8,29.87,SW,232,18.0,19.0,69,0.00,,---,0.00,VWS V14.01,2013-01-05 06:37:00,
2013-01-05 01:42:00,34.9,25.4,29.87,SW,223,12.0,19.0,68,0.00,,---,0.00,VWS V14.01,2013-01-05 06:42:00,
2013-01-05 01:47:00,35.0,25.2,29.87,SW,217,14.0,19.0,67,0.00,,---,0.00,VWS V14.01,2013-01-05 06:47:00,
2013-01-05 01:52:00,35.0,25.5,29.88,SW,219,13.0,19.0,68,0.00,,---,0.00,VWS V14.01,2013-01-05 06:52:00,
2013-01-05 01:57:00,35.0,26.2,29.88,SSW,209,11.0,19.0,70,0.00,,---,0.00,VWS V14.01,2013-01-05 06:57:00,
2013-01-05 02:02:00,35.0,25.5,29.88,SSW,212,14.0,17.0,68,0.00,,---,0.00,VWS V14.01,2013-01-05 07:02:00,
2013-01-05 02:08:00,35.0,26.2,29.88,SSW,212,12.0,17.0,70,0.00,,---,0.00,VWS V14.01,2013-01-05 07:08:00,
2013-01-05 02:13:00,35.2,26.4,29.88,SW,218,13.0,18.0,70,0.00,,---,0.00,VWS V14.01,2013-01-05 07:13:00,
2013-01-05 02:18:00,35.2,26.4,29.88,SW,216,17.0,18.0,70,0.00,,---,0.00,VWS V14.01,2013-01-05 07:18:00,
2013-01-05 02:23:00,35.2,25.0,29.88,SW,224,14.0,18.0,66,0.00,,---,0.00,VWS V14.01,2013-01-05 07:23:00,
2013-01-05 02:28:00,35.3,25.5,29.88,SW,224,16.0,18.0,67,0.00,,---,0.00,VWS V14.01,2013-01-05 07:28:00,
2013-01-05 02:33:00,35.5,26.4,29.88,SW,230,16.0,20.0,69,0.00,,---,0.00,VWS V14.01,2013-01-05 07:33:00,
2013-01-05 02:38:00,35.6,26.5,29.88,SW,234,14.0,22.0,69,0.00,,---,0.00,VWS V14.01,2013-01-05 07:38:00,
2013-01-05 02:43:00,35.6,26.1,29.88,SW,223,17.0,22.0,68,0.00,,---,0.00,VWS V14.01,2013-01-05 07:43:00,
2013-01-05 02:48:00,35.9,26.7,29.88,SW,234,19.0,23.0,69,0.00,,---,0.00,VWS V14.01,2013-01-05 07:48:00,
2013-01-05 02:53:00,35.9,26.4,29.88,SW,225,19.0,23.0,68,0.00,,---,0.00,VWS V14.01,2013-01-05 07:53:00,
2013-01-05 02:58:00,35.9,26.4,29.88,SW,224,22.0,23.0,68,0.00,,---,0.00,VWS V14.01,2013-01-05 07:58:00,
2013-01-05 03:04:00,35.9,26.7,29.89,SW,223,19.0,22.0,69,0.00,,---,0.00,VWS V14.01,2013-01-05 08:04:00,
2013-01-05 03:09:00,35.9,26.7,29.88,SW,225,16.0,22.0,69,0.00,,---,0.00,VWS V14.01,2013-01-05 08:09:00,
2013-01-05 03:14:00,35.8,26.3,29.89,SW,217,18.0,22.0,68,0.00,,---,0.00,VWS V14.01,2013-01-05 08:14:00,
2013-01-05 03:19:00,35.7,26.9,29.89,SW,218,12.0,22.0,70,0.00,,---,0.00,VWS V14.01,2013-01-05 08:19:00,
2013-01-05 03:24:00,35.4,26.6,29.88,SSW,213,14.0,22.0,70,0.00,,---,0.00,VWS V14.01,2013-01-05 08:24:00,
2013-01-05 03:29:00,34.8,26.4,29.88,SSW,213,14.0,22.0,71,0.00,,---,0.00,VWS V14.01,2013-01-05 08:29:00,
2013-01-05 03:34:00,34.6,25.8,29.89,SW,217,16.0,19.0,70,0.00,,---,0.00,VWS V14.01,2013-01-05 08:34:00,
2013-01-05 03:39:00,34.5,26.8,29.89,SSW,209,16.0,20.0,73,0.00,,---,0.00,VWS V14.01,2013-01-05 08:39:00,
2013-01-05 03:45:00,34.6,26.9,29.89,SW,222,15.0,20.0,73,0.00,,---,0.00,VWS V14.01,2013-01-05 08:45:00,
2013-01-05 03:50:00,34.3,26.2,29.89,SW,224,16.0,20.0,72,0.00,,---,0.00,VWS V14.01,2013-01-05 08:50:00,
2013-01-05 03:55:00,34.4,26.7,29.89,SW,219,16.0,20.0,73,0.00,,---,0.00,VWS V14.01,2013-01-05 08:55:00,
2013-01-05 04:00:00,35.0,26.9,29.89,SW,227,15.0,20.0,72,0.00,,---,0.00,VWS V14.01,2013-01-05 09:00:00,
2013-01-05 04:05:00,35.6,27.5,29.90,SW,221,14.0,18.0,72,0.00,,---,0.00,VWS V14.01,2013-01-05 09:05:00,
2013-01-05 04:10:00,36.0,27.2,29.90,WSW,240,13.0,20.0,70,0.00,,---,0.00,VWS V14.01,2013-01-05 09:10:00,
2013-01-05 04:15:00,36.1,27.6,29.90,WSW,250,15.0,23.0,71,0.00,,---,0.00,VWS V14.01,2013-01-05 09:15:00,
2013-01-05 04:20:00,35.9,26.7,29.90,WSW,238,17.0,23.0,69,0.00,,---,0.00,VWS V14.01,2013-01-05 09:20:00,
2013-01-05 04:25:00,35.9,27.4,29.91,SW,232,17.0,23.0,71,0.00,,---,0.00,VWS V14.01,2013-01-05 09:25:00,
2013-01-05 04:31:00,36.0,27.9,29.91,WSW,238,16.0,17.0,72,0.00,,---,0.00,VWS V14.01,2013-01-05 09:31:00,
2013-01-05 04:36:00,36.0,26.8,29.91,WSW,240,16.0,21.0,69,0.00,,---,0.00,VWS V14.01,2013-01-05 09:36:00,
2013-01-05 04:41:00,36.1,27.3,29.91,SW,234,16.0,21.0,70,0.00,,---,0.00,VWS V14.01,2013-01-05 09:41:00,
2013-01-05 04:46:00,36.1,26.9,29.92,WSW,254,16.0,21.0,69,0.00,,---,0.00,VWS V14.01,2013-01-05 09:46:00,
2013-01-05 04:51:00,36.2,27.4,29.92,WSW,238,18.0,21.0,70,0.00,,---,0.00,VWS V14.01,2013-01-05 09:51:00,
2013-01-05 04:56:00,36.2,27.4,29.92,SW,225,16.0,22.0,70,0.00,,---,0.00,VWS V14.01,2013-01-05 09:56:00,
2013-01-05 05:01:00,36.0,27.5,29.92,SW,231,17.0,18.0,71,0.00,,---,0.00,VWS V14.01,2013-01-05 10:01:00,
2013-01-05 05:06:00,35.9,27.4,29.92,SW,219,18.0,22.0,71,0.00,,---,0.00,VWS V14.01,2013-01-05 10:06:00,
2013-01-05 05:12:00,36.1,27.6,29.92,SW,232,14.0,24.0,71,0.00,,---,0.00,VWS V14.01,2013-01-05 10:12:00,
2013-01-05 05:17:00,35.9,27.1,29.92,SW,227,19.0,24.0,70,0.00,,---,0.00,VWS V14.01,2013-01-05 10:17:00,
2013-01-05 05:22:00,35.9,27.8,29.92,WSW,239,20.0,24.0,72,0.00,,---,0.00,VWS V14.01,2013-01-05 10:22:00,
2013-01-05 05:27:00,36.0,27.5,29.93,SW,221,17.0,24.0,71,0.00,,---,0.00,VWS V14.01,2013-01-05 10:27:00,
2013-01-05 05:32:00,36.1,28.0,29.93,SW,230,17.0,19.0,72,0.00,,---,0.00,VWS V14.01,2013-01-05 10:32:00,
2013-01-05 05:37:00,36.1,27.6,29.94,SW,224,17.0,20.0,71,0.00,,---,0.00,VWS V14.01,2013-01-05 10:37:00,
2013-01-05 05:42:00,36.1,27.6,29.94,WSW,252,19.0,20.0,71,0.00,,---,0.00,VWS V14.01,2013-01-05 10:42:00,
2013-01-05 05:47:00,36.1,27.6,29.95,SW,220,11.0,20.0,71,0.00,,---,0.00,VWS V14.01,2013-01-05 10:47:00,
2013-01-05 05:52:00,36.2,27.7,29.95,WSW,241,14.0,20.0,71,0.00,,---,0.00,VWS V14.01,2013-01-05 10:52:00,
2013-01-05 05:57:00,36.1,27.3,29.95,SW,234,14.0,20.0,70,0.00,,---,0.00,VWS V14.01,2013-01-05 10:57:00,
2013-01-05 06:02:00,36.2,27.7,29.96,WSW,247,14.0,18.0,71,0.00,,---,0.00,VWS V14.01,2013-01-05 11:02:00,
2013-01-05 06:07:00,36.1,28.0,29.96,SW,217,14.0,18.0,72,0.00,,---,0.00,VWS V14.01,2013-01-05 11:07:00,
2013-01-05 06:12:00,35.9,27.4,29.96,SW,235,14.0,18.0,71,0.00,,---,0.00,VWS V14.01,2013-01-05 11:12:00,
2013-01-05 06:17:00,36.1,27.6,29.97,SW,232,12.0,18.0,71,0.00,,---,0.00,VWS V14.01,2013-01-05 11:17:00,
2013-01-05 06:22:00,36.2,27.4,29.97,SW,222,13.0,18.0,70,0.00,,---,0.00,VWS V14.01,2013-01-05 11:22:00,
2013-01-05 06:27:00,36.4,27.6,29.98,SW,232,12.0,18.0,70,0.00,,---,0.00,VWS V14.01,2013-01-05 11:27:00,
2013-01-05 06:32:00,36.4,27.6,29.98,SW,234,11.0,16.0,70,0.00,,---,0.00,VWS V14.01,2013-01-05 11:32:00,
2013-01-05 06:38:00,36.4,27.6,29.98,WSW,238,13.0,16.0,70,0.00,,---,0.00,VWS V14.01,2013-01-05 11:38:00,
2013-01-05 06:43:00,36.4,27.9,29.99,WSW,257,14.0,16.0,71,0.00,,---,0.00,VWS V14.01,2013-01-05 11:43:00,
2013-01-05 06:48:00,36.3,27.8,29.99,SW,227,11.0,16.0,71,0.00,,---,0.00,VWS V14.01,2013-01-05 11:48:00,
2013-01-05 06:53:00,36.3,27.8,29.99,SW,221,12.0,16.0,71,0.00,,---,0.00,VWS V14.01,2013-01-05 11:53:00,
2013-01-05 06:58:00,36.2,27.7,30.00,SW,233,14.0,18.0,71,0.00,,---,0.00,VWS V14.01,2013-01-05 11:58:00,
2013-01-05 07:03:00,36.2,27.4,30.00,SW,234,15.0,17.0,70,0.00,,---,0.00,VWS V14.01,2013-01-05 12:03:00,
2013-01-05 07:08:00,36.2,27.4,30.00,WSW,243,12.0,18.0,70,0.00,,---,0.00,VWS V14.01,2013-01-05 12:08:00,
2013-01-05 07:13:00,36.2,27.7,30.00,WSW,255,15.0,18.0,71,0.00,,---,0.00,VWS V14.01,2013-01-05 12:13:00,
2013-01-05 07:18:00,36.3,27.8,30.00,SW,229,16.0,21.0,71,0.00,,---,0.00,VWS V14.01,2013-01-05 12:18:00,
2013-01-05 07:23:00,36.3,27.5,30.01,WSW,239,16.0,21.0,70,0.00,,---,0.00,VWS V14.01,2013-01-05 12:23:00,
2013-01-05 07:28:00,36.3,27.5,30.01,WSW,242,17.0,21.0,70,0.00,,---,0.00,VWS V14.01,2013-01-05 12:28:00,
2013-01-05 07:33:00,36.2,27.4,30.02,SW,235,15.0,18.0,70,0.00,,---,0.00,VWS V14.01,2013-01-05 12:33:00,
2013-01-05 07:38:00,36.2,27.4,30.02,SW,232,15.0,18.0,70,0.00,,---,0.00,VWS V14.01,2013-01-05 12:38:00,
2013-01-05 07:43:00,36.2,27.7,30.02,SW,235,13.0,18.0,71,0.00,,---,0.00,VWS V14.01,2013-01-05 12:43:00,
2013-01-05 07:48:00,36.1,27.6,30.03,SW,225,11.0,18.0,71,0.00,,---,0.00,VWS V14.01,2013-01-05 12:48:00,
2013-01-05 07:54:00,36.0,27.9,30.03,SW,220,8.0,18.0,72,0.00,,---,0.00,VWS V14.01,2013-01-05 12:54:00,
2013-01-05 07:59:00,35.4,27.6,30.04,SSW,213,9.0,18.0,73,0.00,,---,0.00,VWS V14.01,2013-01-05 12:59:00,
2013-01-05 08:04:00,34.7,27.6,30.04,SSW,204,10.0,11.0,75,0.00,,---,0.00,VWS V14.01,2013-01-05 13:04:00,
2013-01-05 08:09:00,34.0,27.2,30.04,SSW,205,9.0,12.0,76,0.00,,---,0.00,VWS V14.01,2013-01-05 13:09:00,
2013-01-05 08:14:00,33.9,27.1,30.05,SSW,206,11.0,12.0,76,0.00,,---,0.00,VWS V14.01,2013-01-05 13:14:00,
2013-01-05 08:19:00,33.9,27.5,30.05,SSW,205,9.0,12.0,77,0.00,,---,0.00,VWS V14.01,2013-01-05 13:19:00,
2013-01-05 08:24:00,34.0,27.2,30.05,SSW,207,8.0,12.0,76,0.00,,---,0.00,VWS V14.01,2013-01-05 13:24:00,
2013-01-05 08:29:00,34.1,27.7,30.05,SSW,208,9.0,12.0,77,0.00,,---,0.00,VWS V14.01,2013-01-05 13:29:00,
2013-01-05 08:34:00,34.3,27.2,30.05,SSW,209,8.0,11.0,75,0.00,,---,0.00,VWS V14.01,2013-01-05 13:34:00,
2013-01-05 08:40:00,34.3,27.2,30.06,SSW,209,8.0,11.0,75,0.00,,---,0.00,VWS V14.01,2013-01-05 13:40:00,
2013-01-05 08:45:00,34.5,27.4,30.06,SSW,213,8.0,11.0,75,0.00,,---,0.00,VWS V14.01,2013-01-05 13:45:00,
2013-01-05 08:50:00,34.8,28.0,30.07,SW,219,10.0,11.0,76,0.00,,---,0.00,VWS V14.01,2013-01-05 13:50:00,
2013-01-05 08:55:00,36.1,27.6,30.07,SW,234,12.0,16.0,71,0.00,,---,0.00,VWS V14.01,2013-01-05 13:55:00,
2013-01-05 09:00:00,36.4,28.2,30.07,SW,215,9.0,16.0,72,0.00,,---,0.00,VWS V14.01,2013-01-05 14:00:00,
2013-01-05 09:05:00,36.3,28.8,30.08,SW,223,6.0,13.0,74,0.00,,---,0.00,VWS V14.01,2013-01-05 14:05:00,
2013-01-05 09:10:00,36.6,28.1,30.08,SW,223,14.0,15.0,71,0.00,,---,0.00,VWS V14.01,2013-01-05 14:10:00,
2013-01-05 09:15:00,36.9,27.7,30.08,SW,231,14.0,16.0,69,0.00,,---,0.00,VWS V14.01,2013-01-05 14:15:00,
2013-01-05 09:20:00,36.9,28.0,30.09,SW,222,14.0,17.0,70,0.00,,---,0.00,VWS V14.01,2013-01-05 14:20:00,
2013-01-05 09:25:00,36.9,28.0,30.09,WSW,244,14.0,17.0,70,0.00,,---,0.00,VWS V14.01,2013-01-05 14:25:00,
2013-01-05 09:30:00,37.1,27.9,30.09,SW,215,14.0,14.0,69,0.00,,---,0.00,VWS V14.01,2013-01-05 14:30:00,
2013-01-05 09:35:00,37.3,27.7,30.10,WSW,252,14.0,15.0,68,0.00,,---,0.00,VWS V14.01,2013-01-05 14:35:00,
2013-01-05 09:41:00,37.5,27.9,30.11,WSW,247,9.0,15.0,68,0.00,,---,0.00,VWS V14.01,2013-01-05 14:41:00,
2013-01-05 09:46:00,37.7,28.1,30.11,WSW,248,12.0,16.0,68,0.00,,---,0.00,VWS V14.01,2013-01-05 14:46:00,
2013-01-05 09:51:00,37.9,28.3,30.11,West,270,14.0,18.0,68,0.00,,---,0.00,VWS V14.01,2013-01-05 14:51:00,
2013-01-05 09:56:00,38.2,27.9,30.11,West,281,16.0,19.0,66,0.00,,---,0.00,VWS V14.01,2013-01-05 14:56:00,
2013-01-05 10:01:00,38.3,27.2,30.12,West,277,14.0,15.0,64,0.00,,---,0.00,VWS V14.01,2013-01-05 15:01:00,
2013-01-05 10:06:00,38.4,28.0,30.12,West,271,15.0,20.0,66,0.00,,---,0.00,VWS V14.01,2013-01-05 15:06:00,
2013-01-05 10:11:00,38.3,28.0,30.12,West,275,13.0,20.0,66,0.00,,---,0.00,VWS V14.01,2013-01-05 15:11:00,
2013-01-05 10:16:00,38.5,27.8,30.12,WNW,286,15.0,20.0,65,0.00,,---,0.00,VWS V14.01,2013-01-05 15:16:00,
2013-01-05 10:21:00,38.5,27.8,30.12,West,260,18.0,20.0,65,0.00,,---,0.00,VWS V14.01,2013-01-05 15:21:00,
2013-01-05 10:26:00,38.8,26.9,30.12,WNW,294,12.0,23.0,62,0.00,,---,0.00,VWS V14.01,2013-01-05 15:26:00,
2013-01-05 10:32:00,38.7,27.2,30.12,West,281,13.0,18.0,63,0.00,,---,0.00,VWS V14.01,2013-01-05 15:32:00,
2013-01-05 10:37:00,38.9,26.6,30.12,WNW,292,17.0,18.0,61,0.00,,---,0.00,VWS V14.01,2013-01-05 15:37:00,
2013-01-05 10:42:00,38.9,26.6,30.12,NW,314,16.0,21.0,61,0.00,,---,0.00,VWS V14.01,2013-01-05 15:42:00,
2013-01-05 10:47:00,38.9,26.2,30.12,NW,304,13.0,21.0,60,0.00,,---,0.00,VWS V14.01,2013-01-05 15:47:00,
2013-01-05 10:52:00,38.9,25.8,30.12,NNW,327,17.0,21.0,59,0.00,,---,0.00,VWS V14.01,2013-01-05 15:52:00,
2013-01-05 10:57:00,38.9,25.8,30.12,NW,319,17.0,26.0,59,0.00,,---,0.00,VWS V14.01,2013-01-05 15:57:00,
2013-01-05 11:02:00,38.9,25.4,30.12,WNW,300,17.0,24.0,58,0.00,,---,0.00,VWS V14.01,2013-01-05 16:02:00,
2013-01-05 11:07:00,38.9,25.8,30.12,NW,315,18.0,24.0,59,0.00,,---,0.00,VWS V14.01,2013-01-05 16:07:00,
2013-01-05 11:12:00,39.0,25.1,30.12,NW,311,12.0,24.0,57,0.00,,---,0.00,VWS V14.01,2013-01-05 16:12:00,
2013-01-05 11:17:00,38.9,25.4,30.12,WNW,298,14.0,24.0,58,0.00,,---,0.00,VWS V14.01,2013-01-05 16:17:00,
2013-01-05 11:22:00,39.0,25.1,30.12,WNW,291,17.0,24.0,57,0.00,,---,0.00,VWS V14.01,2013-01-05 16:22:00,
2013-01-05 11:27:00,39.2,24.4,30.13,WNW,288,14.0,24.0,55,0.00,,---,0.00,VWS V14.01,2013-01-05 16:27:00,
2013-01-05 11:32:00,39.3,24.5,30.13,WNW,296,15.0,19.0,55,0.00,,---,0.00,VWS V14.01,2013-01-05 16:32:00,
2013-01-05 11:37:00,39.6,24.3,30.13,WNW,298,12.0,19.0,54,0.00,,---,0.00,VWS V14.01,2013-01-05 16:37:00,
2013-01-05 11:42:00,39.5,24.2,30.14,WNW,298,13.0,20.0,54,0.00,,---,0.00,VWS V14.01,2013-01-05 16:42:00,
2013-01-05 11:47:00,39.7,24.4,30.13,WNW,289,21.0,21.0,54,0.00,,---,0.00,VWS V14.01,2013-01-05 16:47:00,
2013-01-05 11:53:00,39.7,24.9,30.13,WNW,294,13.0,21.0,55,0.00,,---,0.00,VWS V14.01,2013-01-05 16:53:00,
2013-01-05 11:58:00,39.8,25.8,30.13,WNW,296,13.0,21.0,57,0.00,,---,0.00,VWS V14.01,2013-01-05 16:58:00,
2013-01-05 12:03:00,39.8,24.5,30.13,WNW,302,12.0,20.0,54,0.00,,---,0.00,VWS V14.01,2013-01-05 17:03:00,
2013-01-05 12:08:00,39.8,25.0,30.13,WNW,290,16.0,20.0,55,0.00,,---,0.00,VWS V14.01,2013-01-05 17:08:00,
2013-01-05 12:13:00,39.9,25.5,30.13,WNW,288,14.0,20.0,56,0.00,,---,0.00,VWS V14.01,2013-01-05 17:13:00,
2013-01-05 12:18:00,40.0,24.7,30.13,WNW,290,16.0,20.0,54,0.00,,---,0.00,VWS V14.01,2013-01-05 17:18:00,
2013-01-05 12:23:00,40.0,26.4,30.12,West,268,19.0,20.0,58,0.00,,---,0.00,VWS V14.01,2013-01-05 17:23:00,
2013-01-05 12:28:00,40.0,26.0,30.12,West,274,15.0,20.0,57,0.00,,---,0.00,VWS V14.01,2013-01-05 17:28:00,
2013-01-05 12:33:00,40.1,26.1,30.13,WNW,292,12.0,16.0,57,0.00,,---,0.00,VWS V14.01,2013-01-05 17:33:00,
2013-01-05 12:38:00,40.3,26.7,30.13,West,281,13.0,16.0,58,0.00,,---,0.00,VWS V14.01,2013-01-05 17:38:00,
2013-01-05 12:44:00,40.4,26.0,30.13,WNW,297,14.0,16.0,56,0.00,,---,0.00,VWS V14.01,2013-01-05 17:44:00,
2013-01-05 12:49:00,40.6,24.4,30.13,WNW,299,11.0,16.0,52,0.00,,---,0.00,VWS V14.01,2013-01-05 17:49:00,
2013-01-05 12:54:00,40.3,24.5,30.13,NNW,348,15.0,17.0,53,0.00,,---,0.00,VWS V14.01,2013-01-05 17:54:00,
2013-01-05 12:59:00,40.0,24.3,30.14,NNW,328,14.0,18.0,53,0.00,,---,0.00,VWS V14.01,2013-01-05 17:59:00,
2013-01-05 13:04:00,40.0,24.7,30.14,NW,319,12.0,13.0,54,0.00,,---,0.00,VWS V14.01,2013-01-05 18:04:00,
2013-01-05 13:09:00,40.3,24.5,30.14,NNW,335,13.0,13.0,53,0.00,,---,0.00,VWS V14.01,2013-01-05 18:09:00,
2013-01-05 13:14:00,40.4,22.8,30.14,NNW,331,12.0,16.0,49,0.00,,---,0.00,VWS V14.01,2013-01-05 18:14:00,
2013-01-05 13:19:00,40.6,23.9,30.14,NW,320,14.0,18.0,51,0.00,,---,0.00,VWS V14.01,2013-01-05 18:19:00,
2013-01-05 13:24:00,40.9,22.7,30.14,WNW,292,10.0,18.0,48,0.00,,---,0.00,VWS V14.01,2013-01-05 18:24:00,
2013-01-05 13:29:00,40.7,22.1,30.14,NW,319,9.0,18.0,47,0.00,,---,0.00,VWS V14.01,2013-01-05 18:29:00,
2013-01-05 13:35:00,40.8,25.0,30.14,NNW,335,15.0,17.0,53,0.00,,---,0.00,VWS V14.01,2013-01-05 18:35:00,
2013-01-05 13:40:00,41.1,22.9,30.13,NW,319,12.0,17.0,48,0.00,,---,0.00,VWS V14.01,2013-01-05 18:40:00,
2013-01-05 13:45:00,41.1,22.9,30.13,NNW,328,15.0,17.0,48,0.00,,---,0.00,VWS V14.01,2013-01-05 18:45:00,
2013-01-05 13:50:00,41.4,25.6,30.13,WNW,294,12.0,17.0,53,0.00,,---,0.00,VWS V14.01,2013-01-05 18:50:00,
2013-01-05 13:55:00,41.5,25.7,30.14,WNW,283,13.0,17.0,53,0.00,,---,0.00,VWS V14.01,2013-01-05 18:55:00,
2013-01-05 14:00:00,41.7,24.0,30.14,WNW,300,10.0,18.0,49,0.00,,---,0.00,VWS V14.01,2013-01-05 19:00:00,
2013-01-05 14:05:00,41.4,23.7,30.14,NW,317,8.0,13.0,49,0.00,,---,0.00,VWS V14.01,2013-01-05 19:05:00,
2013-01-05 14:10:00,41.2,23.0,30.14,NNW,340,11.0,14.0,48,0.00,,---,0.00,VWS V14.01,2013-01-05 19:10:00,
2013-01-05 14:15:00,41.1,22.4,30.14,NNW,333,12.0,16.0,47,0.00,,---,0.00,VWS V14.01,2013-01-05 19:15:00,
2013-01-05 14:21:00,41.0,21.8,30.14,NW,324,15.0,20.0,46,0.00,,---,0.00,VWS V14.01,2013-01-05 19:21:00,
2013-01-05 14:26:00,41.0,22.8,30.15,NW,324,14.0,20.0,48,0.00,,---,0.00,VWS V14.01,2013-01-05 19:26:00,
2013-01-05 14:31:00,40.9,23.7,30.15,NW,324,9.0,13.0,50,0.00,,---,0.00,VWS V14.01,2013-01-05 19:31:00,
2013-01-05 14:36:00,40.6,22.0,30.14,NNW,335,14.0,16.0,47,0.00,,---,0.00,VWS V14.01,2013-01-05 19:36:00,
2013-01-05 14:41:00,40.3,23.1,30.15,NNW,338,12.0,21.0,50,0.00,,---,0.00,VWS V14.01,2013-01-05 19:41:00,
2013-01-05 14:46:00,40.3,21.2,30.15,NNW,344,12.0,21.0,46,0.00,,---,0.00,VWS V14.01,2013-01-05 19:46:00,
2013-01-05 14:51:00,40.4,20.8,30.15,NNW,340,16.0,21.0,45,0.00,,---,0.00,VWS V14.01,2013-01-05 19:51:00,
2013-01-05 14:56:00,40.3,21.7,30.16,NNW,327,9.0,21.0,47,0.00,,---,0.00,VWS V14.01,2013-01-05 19:56:00,
2013-01-05 15:01:00,40.5,20.9,30.16,NW,321,10.0,16.0,45,0.00,,---,0.00,VWS V14.01,2013-01-05 20:01:00,
2013-01-05 15:07:00,40.6,20.4,30.16,NNW,333,14.0,19.0,44,0.00,,---,0.00,VWS V14.01,2013-01-05 20:07:00,
2013-01-05 15:12:00,40.6,22.0,30.16,NW,322,15.0,19.0,47,0.00,,---,0.00,VWS V14.01,2013-01-05 20:12:00,
2013-01-05 15:17:00,40.4,20.8,30.16,NW,325,10.0,19.0,45,0.00,,---,0.00,VWS V14.01,2013-01-05 20:17:00,
2013-01-05 15:22:00,40.5,21.9,30.17,NNW,340,6.0,19.0,47,0.00,,---,0.00,VWS V14.01,2013-01-05 20:22:00,
2013-01-05 15:27:00,40.3,22.2,30.18,NW,317,3.0,19.0,48,0.00,,---,0.00,VWS V14.01,2013-01-05 20:27:00,
2013-01-05 15:32:00,40.2,22.1,30.18,NNW,339,10.0,11.0,48,0.00,,---,0.00,VWS V14.01,2013-01-05 20:32:00,
2013-01-05 15:37:00,40.2,21.6,30.18,NNW,344,10.0,15.0,47,0.00,,---,0.00,VWS V14.01,2013-01-05 20:37:00,
2013-01-05 15:42:00,40.2,20.0,30.18,NNW,327,13.0,17.0,44,0.00,,---,0.00,VWS V14.01,2013-01-05 20:42:00,
2013-01-05 15:48:00,40.2,21.1,30.18,NNW,330,14.0,17.0,46,0.00,,---,0.00,VWS V14.01,2013-01-05 20:48:00,
2013-01-05 15:53:00,40.2,22.6,30.18,NNW,336,9.0,17.0,49,0.00,,---,0.00,VWS V14.01,2013-01-05 20:53:00,
2013-01-05 15:58:00,40.1,22.5,30.18,North,355,8.0,17.0,49,0.00,,---,0.00,VWS V14.01,2013-01-05 20:58:00,
2013-01-05 16:03:00,40.0,22.4,30.18,NNE,22,5.0,8.0,49,0.00,,---,0.00,VWS V14.01,2013-01-05 21:03:00,
2013-01-05 16:08:00,39.8,21.2,30.18,North,5,5.0,10.0,47,0.00,,---,0.00,VWS V14.01,2013-01-05 21:08:00,
2013-01-05 16:13:00,39.7,21.1,30.19,North,9,7.0,10.0,47,0.00,,---,0.00,VWS V14.01,2013-01-05 21:13:00,
2013-01-05 16:18:00,39.6,20.5,30.19,North,360,5.0,10.0,46,0.00,,---,0.00,VWS V14.01,2013-01-05 21:18:00,
2013-01-05 16:24:00,39.3,22.7,30.20,North,5,1.0,10.0,51,0.00,,---,0.00,VWS V14.01,2013-01-05 21:24:00,
2013-01-05 16:29:00,39.2,22.6,30.20,NNE,13,0.0,10.0,51,0.00,,---,0.00,VWS V14.01,2013-01-05 21:29:00,
2013-01-05 16:34:00,38.9,21.9,30.20,NNE,18,0.0,4.0,50,0.00,,---,0.00,VWS V14.01,2013-01-05 21:34:00,
2013-01-05 16:39:00,38.8,23.6,30.21,North,355,6.0,7.0,54,0.00,,---,0.00,VWS V14.01,2013-01-05 21:39:00,
2013-01-05 16:44:00,38.5,24.2,30.20,NNE,12,1.0,7.0,56,0.00,,---,0.00,VWS V14.01,2013-01-05 21:44:00,
2013-01-05 16:49:00,38.4,21.9,30.21,North,11,4.0,8.0,51,0.00,,---,0.00,VWS V14.01,2013-01-05 21:49:00,
2013-01-05 16:54:00,38.2,20.7,30.22,NNE,22,5.0,8.0,49,0.00,,---,0.00,VWS V14.01,2013-01-05 21:54:00,
2013-01-05 16:59:00,38.0,21.0,30.22,NNE,19,1.0,8.0,50,0.00,,---,0.00,VWS V14.01,2013-01-05 21:59:00,
2013-01-05 17:05:00,37.9,22.8,30.22,North,355,9.0,9.0,54,0.00,,---,0.00,VWS V14.01,2013-01-05 22:05:00,
2013-01-05 17:10:00,38.0,23.7,30.22,North,349,7.0,10.0,56,0.00,,---,0.00,VWS V14.01,2013-01-05 22:10:00,
2013-01-05 17:15:00,37.9,24.0,30.22,NNE,14,6.0,10.0,57,0.00,,---,0.00,VWS V14.01,2013-01-05 22:15:00,
2013-01-05 17:20:00,37.7,21.2,30.23,NNE,16,1.0,10.0,51,0.00,,---,0.00,VWS V14.01,2013-01-05 22:20:00,
2013-01-05 17:25:00,37.4,21.9,30.22,NNE,13,5.0,10.0,53,0.00,,---,0.00,VWS V14.01,2013-01-05 22:25:00,
2013-01-05 17:30:00,37.3,22.2,30.22,North,11,3.0,5.0,54,0.00,,---,0.00,VWS V14.01,2013-01-05 22:30:00,
2013-01-05 17:35:00,37.2,22.1,30.22,North,11,3.0,6.0,54,0.00,,---,0.00,VWS V14.01,2013-01-05 22:35:00,
2013-01-05 17:40:00,37.0,21.0,30.23,NNE,19,2.0,6.0,52,0.00,,---,0.00,VWS V14.01,2013-01-05 22:40:00,
2013-01-05 17:46:00,36.8,19.9,30.23,NNE,19,1.0,6.0,50,0.00,,---,0.00,VWS V14.01,2013-01-05 22:46:00,
2013-01-05 17:51:00,36.7,19.8,30.23,NNE,18,1.0,6.0,50,0.00,,---,0.00,VWS V14.01,2013-01-05 22:51:00,
2013-01-05 17:56:00,36.8,20.4,30.23,NNE,19,1.0,6.0,51,0.00,,---,0.00,VWS V14.01,2013-01-05 22:56:00,
2013-01-05 18:01:00,36.7,20.3,30.24,NNE,19,0.0,1.0,51,0.00,,---,0.00,VWS V14.01,2013-01-05 23:01:00,
2013-01-05 18:06:00,36.6,20.2,30.24,NNE,19,1.0,1.0,51,0.00,,---,0.00,VWS V14.01,2013-01-05 23:06:00,
2013-01-05 18:11:00,36.4,20.0,30.24,NNE,19,1.0,4.0,51,0.00,,---,0.00,VWS V14.01,2013-01-05 23:11:00,
2013-01-05 18:16:00,36.4,19.5,30.24,NNE,13,1.0,6.0,50,0.00,,---,0.00,VWS V14.01,2013-01-05 23:16:00,
2013-01-05 18:21:00,36.4,19.5,30.24,North,10,5.0,6.0,50,0.00,,---,0.00,VWS V14.01,2013-01-05 23:21:00,
2013-01-05 18:27:00,36.1,19.7,30.24,NNE,17,2.0,6.0,51,0.00,,---,0.00,VWS V14.01,2013-01-05 23:27:00,
2013-01-05 18:32:00,36.0,19.6,30.24,NNE,14,6.0,7.0,51,0.00,,---,0.00,VWS V14.01,2013-01-05 23:32:00,
2013-01-05 18:37:00,35.9,19.1,30.24,NNE,13,5.0,8.0,50,0.00,,---,0.00,VWS V14.01,2013-01-05 23:37:00,
2013-01-05 18:42:00,35.8,19.0,30.25,NNE,17,4.0,8.0,50,0.00,,---,0.00,VWS V14.01,2013-01-05 23:42:00,
2013-01-05 18:47:00,35.7,19.4,30.25,NNE,19,1.0,8.0,51,0.00,,---,0.00,VWS V14.01,2013-01-05 23:47:00,
2013-01-05 18:52:00,35.7,19.8,30.25,North,360,6.0,8.0,52,0.00,,---,0.00,VWS V14.01,2013-01-05 23:52:00,
2013-01-05 18:57:00,35.7,19.8,30.26,North,360,5.0,8.0,52,0.00,,---,0.00,VWS V14.01,2013-01-05 23:57:00,
2013-01-05 19:02:00,35.6,20.2,30.27,North,5,2.0,2.0,53,0.00,,---,0.00,VWS V14.01,2013-01-06 00:02:00,
2013-01-05 19:08:00,35.4,19.5,30.27,North,5,0.0,6.0,52,0.00,,---,0.00,VWS V14.01,2013-01-06 00:08:00,
2013-01-05 19:13:00,35.2,19.8,30.27,North,5,1.0,6.0,53,0.00,,---,0.00,VWS V14.01,2013-01-06 00:13:00,
2013-01-05 19:18:00,35.0,20.5,30.27,North,5,1.0,6.0,55,0.00,,---,0.00,VWS V14.01,2013-01-06 00:18:00,
2013-01-05 19:23:00,34.9,21.2,30.26,North,5,1.0,6.0,57,0.00,,---,0.00,VWS V14.01,2013-01-06 00:23:00,
2013-01-05 19:28:00,35.0,22.5,30.27,North,5,1.0,6.0,60,0.00,,---,0.00,VWS V14.01,2013-01-06 00:28:00,
2013-01-05 19:33:00,34.8,21.1,30.27,NNE,13,1.0,1.0,57,0.00,,---,0.00,VWS V14.01,2013-01-06 00:33:00,
2013-01-05 19:38:00,34.6,20.5,30.26,NNE,12,2.0,4.0,56,0.00,,---,0.00,VWS V14.01,2013-01-06 00:38:00,
2013-01-05 19:43:00,34.7,22.6,30.26,North,5,0.0,4.0,61,0.00,,---,0.00,VWS V14.01,2013-01-06 00:43:00,
2013-01-05 19:49:00,34.6,22.2,30.26,North,5,1.0,4.0,60,0.00,,---,0.00,VWS V14.01,2013-01-06 00:49:00,
2013-01-05 19:54:00,34.3,20.2,30.26,NNE,23,0.0,4.0,56,0.00,,---,0.00,VWS V14.01,2013-01-06 00:54:00,
2013-01-05 19:59:00,34.1,19.6,30.26,NNE,23,0.0,4.0,55,0.00,,---,0.00,VWS V14.01,2013-01-06 00:59:00,
2013-01-05 20:04:00,34.2,20.6,30.25,NNE,22,0.0,0.0,57,0.00,,---,0.00,VWS V14.01,2013-01-06 01:04:00,
2013-01-05 20:09:00,34.2,19.7,30.25,NNE,23,0.0,0.0,55,0.00,,---,0.00,VWS V14.01,2013-01-06 01:09:00,
2013-01-05 20:14:00,34.1,20.5,30.26,NNE,23,0.0,0.0,57,0.00,,---,0.00,VWS V14.01,2013-01-06 01:14:00,
2013-01-05 20:19:00,33.9,20.7,30.26,NNE,23,0.0,0.0,58,0.00,,---,0.00,VWS V14.01,2013-01-06 01:19:00,
2013-01-05 20:24:00,33.7,20.5,30.25,NNE,24,0.0,0.0,58,0.00,,---,0.00,VWS V14.01,2013-01-06 01:24:00,
2013-01-05 20:29:00,33.7,20.5,30.24,NNE,30,1.0,7.0,58,0.00,,---,0.00,VWS V14.01,2013-01-06 01:29:00,
2013-01-05 20:35:00,33.7,20.1,30.25,NE,51,3.0,5.0,57,0.00,,---,0.00,VWS V14.01,2013-01-06 01:35:00,
2013-01-05 20:40:00,33.6,20.4,30.26,ENE,57,3.0,7.0,58,0.00,,---,0.00,VWS V14.01,2013-01-06 01:40:00,
2013-01-05 20:45:00,33.4,19.8,30.25,ENE,57,0.0,7.0,57,0.00,,---,0.00,VWS V14.01,2013-01-06 01:45:00,
2013-01-05 20:50:00,33.5,20.3,30.25,ENE,57,0.0,7.0,58,0.00,,---,0.00,VWS V14.01,2013-01-06 01:50:00,
2013-01-05 20:55:00,33.6,20.8,30.25,ENE,58,0.0,7.0,59,0.00,,---,0.00,VWS V14.01,2013-01-06 01:55:00,
2013-01-05 21:00:00,33.5,21.1,30.24,NE,55,3.0,3.0,60,0.00,,---,0.00,VWS V14.01,2013-01-06 02:00:00,
2013-01-05 21:05:00,33.4,21.4,30.25,NE,55,0.0,3.0,61,0.00,,---,0.00,VWS V14.01,2013-01-06 02:05:00,
2013-01-05 21:10:00,33.3,22.1,30.24,NE,42,1.0,5.0,63,0.00,,---,0.00,VWS V14.01,2013-01-06 02:10:00,
2013-01-05 21:16:00,33.4,22.5,30.25,NE,42,0.0,5.0,64,0.00,,---,0.00,VWS V14.01,2013-01-06 02:16:00,
2013-01-05 21:21:00,33.5,22.6,30.25,NE,42,0.0,5.0,64,0.00,,---,0.00,VWS V14.01,2013-01-06 02:21:00,
2013-01-05 21:26:00,33.4,22.9,30.24,NE,42,1.0,5.0,65,0.00,,---,0.00,VWS V14.01,2013-01-06 02:26:00,
2013-01-05 21:31:00,33.2,23.1,30.24,NE,42,0.0,0.0,66,0.00,,---,0.00,VWS V14.01,2013-01-06 02:31:00,
2013-01-05 21:36:00,33.4,24.3,30.25,NE,37,0.0,0.0,69,0.00,,---,0.00,VWS V14.01,2013-01-06 02:36:00,
2013-01-05 21:41:00,33.5,24.4,30.25,NNE,32,0.0,4.0,69,0.00,,---,0.00,VWS V14.01,2013-01-06 02:41:00,
2013-01-05 21:46:00,33.4,24.3,30.25,NNE,32,0.0,4.0,69,0.00,,---,0.00,VWS V14.01,2013-01-06 02:46:00,
2013-01-05 21:52:00,33.4,25.0,30.24,NNE,14,4.0,4.0,71,0.00,,---,0.00,VWS V14.01,2013-01-06 02:52:00,
2013-01-05 21:57:00,33.4,24.7,30.25,North,11,0.0,4.0,70,0.00,,---,0.00,VWS V14.01,2013-01-06 02:57:00,
2013-01-05 22:02:00,33.0,24.3,30.24,North,11,0.0,0.0,70,0.00,,---,0.00,VWS V14.01,2013-01-06 03:02:00,
2013-01-05 22:07:00,32.7,24.4,30.24,North,11,0.0,0.0,71,0.00,,---,0.00,VWS V14.01,2013-01-06 03:07:00,
2013-01-05 22:12:00,31.6,19.3,30.24,WNW,290,0.0,2.0,60,0.00,,---,0.00,VWS V14.01,2013-01-06 03:12:00,
2013-01-05 22:17:00,31.3,18.6,30.24,WNW,290,0.0,2.0,59,0.00,,---,0.00,VWS V14.01,2013-01-06 03:17:00,
2013-01-05 22:22:00,31.2,18.2,30.24,WNW,290,2.0,2.0,58,0.00,,---,0.00,VWS V14.01,2013-01-06 03:22:00,
2013-01-05 22:27:00,31.1,18.1,30.25,WNW,290,1.0,3.0,58,0.00,,---,0.00,VWS V14.01,2013-01-06 03:27:00,
2013-01-05 22:32:00,31.0,18.0,30.24,WNW,290,2.0,3.0,58,0.00,,---,0.00,VWS V14.01,2013-01-06 03:32:00,
2013-01-05 22:37:00,31.0,17.6,30.25,WNW,290,1.0,3.0,57,0.00,,---,0.00,VWS V14.01,2013-01-06 03:37:00,
2013-01-05 22:43:00,30.9,17.9,30.25,WNW,290,2.0,3.0,58,0.00,,---,0.00,VWS V14.01,2013-01-06 03:43:00,
2013-01-05 22:48:00,30.7,17.7,30.26,WNW,290,1.0,3.0,58,0.00,,---,0.00,VWS V14.01,2013-01-06 03:48:00,
2013-01-05 22:53:00,30.4,17.8,30.26,WNW,290,0.0,3.0,59,0.00,,---,0.00,VWS V14.01,2013-01-06 03:53:00,
2013-01-05 22:58:00,30.3,17.3,30.26,WNW,290,2.0,4.0,58,0.00,,---,0.00,VWS V14.01,2013-01-06 03:58:00,
2013-01-05 23:03:00,30.2,17.6,30.25,WNW,290,3.0,5.0,59,0.00,,---,0.00,VWS V14.01,2013-01-06 04:03:00,
2013-01-05 23:08:00,30.3,17.7,30.24,WNW,290,2.0,5.0,59,0.00,,---,0.00,VWS V14.01,2013-01-06 04:08:00,
2013-01-05 23:13:00,30.6,18.8,30.24,WNW,290,2.0,5.0,61,0.00,,---,0.00,VWS V14.01,2013-01-06 04:13:00,
2013-01-05 23:18:00,30.8,19.3,30.24,WNW,290,2.0,5.0,62,0.00,,---,0.00,VWS V14.01,2013-01-06 04:18:00,
2013-01-05 23:24:00,30.9,19.4,30.23,WNW,290,0.0,5.0,62,0.00,,---,0.00,VWS V14.01,2013-01-06 04:24:00,
2013-01-05 23:29:00,31.2,20.5,30.22,WNW,290,3.0,5.0,64,0.00,,---,0.00,VWS V14.01,2013-01-06 04:29:00,
2013-01-05 23:34:00,31.4,20.3,30.22,WNW,290,2.0,3.0,63,0.00,,---,0.00,VWS V14.01,2013-01-06 04:34:00,
2013-01-05 23:39:00,31.4,20.6,30.22,NNW,331,3.0,4.0,64,0.00,,---,0.00,VWS V14.01,2013-01-06 04:39:00,
2013-01-05 23:44:00,31.4,20.6,30.20,NNW,331,2.0,4.0,64,0.00,,---,0.00,VWS V14.01,2013-01-06 04:44:00,
2013-01-05 23:49:00,31.3,20.9,30.21,NNW,331,2.0,4.0,65,0.00,,---,0.00,VWS V14.01,2013-01-06 04:49:00,
2013-01-05 23:54:00,31.2,21.2,30.22,NNW,331,2.0,4.0,66,0.00,,---,0.00,VWS V14.01,2013-01-06 04:54:00,
2013-01-05 23:59:00,31.2,21.2,30.21,NNW,331,3.0,4.0,66,0.00,,---,0.00,VWS V14.01,2013-01-06 04:59:00,